Time;durP1;ratioP1;P1;durP2;ratioP2;P2;SDS_P1;SDS_P2;PMS_P1;PMS_P2;Temp;Humidity;BMP_temperature;BMP_pressure;BME280_temperature;BME280_humidity;BME280_pressure;Samples;Min_cycle;Max_cycle;Signal;HPM_P1;HPM_P2
2022/09/06 00:01:07;;;;;;;1.77;1.40;;;23.60;70.30;;;;;;4951546;29;20182;-74
2022/09/06 00:03:33;;;;;;;2.03;1.17;;;23.50;71.00;;;;;;4966866;28;20208;-77
2022/09/06 00:06:06;;;;;;;1.15;1.00;;;23.50;70.50;;;;;;4954030;29;20280;-77
2022/09/06 00:08:31;;;;;;;2.00;1.20;;;23.50;70.50;;;;;;4968732;29;20196;-77
2022/09/06 00:10:57;;;;;;;1.67;1.30;;;23.50;70.60;;;;;;4952098;29;20193;-75
2022/09/06 00:13:23;;;;;;;2.95;1.17;;;23.50;70.80;;;;;;4967094;29;20482;-77
2022/09/06 00:15:51;;;;;;;1.75;1.38;;;23.50;71.30;;;;;;4952339;29;20410;-75
2022/09/06 00:18:17;;;;;;;1.67;1.38;;;23.50;71.90;;;;;;4938437;29;20278;-76
2022/09/06 00:20:45;;;;;;;1.88;1.40;;;23.50;71.70;;;;;;4966876;29;20185;-79
2022/09/06 00:23:13;;;;;;;2.85;1.40;;;23.50;71.50;;;;;;4950626;29;20197;-74
2022/09/06 00:25:40;;;;;;;2.97;1.55;;;23.40;71.30;;;;;;4965351;29;20189;-75
2022/09/06 00:28:06;;;;;;;2.22;1.45;;;23.40;71.70;;;;;;4942243;29;20212;-73
2022/09/06 00:30:32;;;;;;;2.70;1.65;;;23.40;71.90;;;;;;4954234;29;20177;-74
2022/09/06 00:32:58;;;;;;;1.88;1.60;;;23.30;71.90;;;;;;4961912;29;20213;-71
2022/09/06 00:35:28;;;;;;;2.65;1.60;;;23.30;72.10;;;;;;4963944;29;20182;-74
2022/09/06 00:38:01;;;;;;;3.28;1.50;;;23.20;72.30;;;;;;4964876;29;20181;-70
2022/09/06 00:40:28;;;;;;;3.30;1.58;;;23.20;73.20;;;;;;4971559;28;20185;-75
2022/09/06 00:42:57;;;;;;;1.77;1.30;;;23.10;73.40;;;;;;4970545;29;20207;-75
2022/09/06 00:45:25;;;;;;;1.52;1.27;;;22.90;74.10;;;;;;4966810;29;20181;-72
2022/09/06 00:47:51;;;;;;;2.42;1.42;;;22.80;74.60;;;;;;4974113;29;20202;-73
2022/09/06 00:50:18;;;;;;;2.60;1.38;;;22.80;74.70;;;;;;4956183;29;20200;-74
2022/09/06 00:52:49;;;;;;;2.17;1.40;;;22.70;75.70;;;;;;4961182;29;20211;-77
2022/09/06 00:55:18;;;;;;;2.08;1.27;;;22.70;77.10;;;;;;4971697;29;20217;-74
2022/09/06 00:57:50;;;;;;;1.75;1.30;;;22.60;76.90;;;;;;4956810;29;20185;-74
2022/09/06 01:00:19;;;;;;;2.13;1.33;;;22.60;78.30;;;;;;4963071;29;20191;-72
2022/09/06 01:02:47;;;;;;;2.08;1.33;;;22.60;77.70;;;;;;4968548;29;20200;-72
2022/09/06 01:05:13;;;;;;;1.65;1.30;;;22.50;77.80;;;;;;4971266;28;20194;-71
2022/09/06 01:07:58;;;;;;;1.50;1.20;;;22.50;78.20;;;;;;4971770;28;20185;-70
2022/09/06 01:10:50;;;;;;;1.40;1.10;;;22.50;78.70;;;;;;4962387;29;20216;-72
2022/09/06 01:13:33;;;;;;;2.08;1.40;;;22.40;80.00;;;;;;4969105;29;20201;-69
2022/09/06 01:16:12;;;;;;;3.05;1.40;;;22.40;80.40;;;;;;4957501;29;20204;-75
2022/09/06 01:19:12;;;;;;;2.58;1.38;;;22.40;82.40;;;;;;4954306;29;20182;-75
2022/09/06 01:21:47;;;;;;;2.95;1.30;;;22.40;84.20;;;;;;4942637;29;20212;-72
2022/09/06 01:24:24;;;;;;;1.50;1.30;;;22.30;81.80;;;;;;4949498;29;20212;-70
2022/09/06 01:26:58;;;;;;;2.67;1.15;;;22.30;85.20;;;;;;4947198;29;20212;-72
2022/09/06 01:29:43;;;;;;;1.58;1.30;;;22.30;85.50;;;;;;4941565;29;20177;-71
2022/09/06 01:32:16;;;;;;;2.75;1.55;;;22.30;89.00;;;;;;4948864;29;20397;-71
2022/09/06 01:34:49;;;;;;;1.75;1.33;;;22.30;89.60;;;;;;4949610;29;20257;-72
2022/09/06 01:37:19;;;;;;;1.80;1.30;;;22.20;89.50;;;;;;4961882;29;20201;-69
2022/09/06 01:39:49;;;;;;;2.65;1.55;;;22.20;90.10;;;;;;4964303;29;20181;-71
2022/09/06 01:42:31;;;;;;;1.55;1.42;;;22.20;90.70;;;;;;4965889;29;20192;-71
2022/09/06 01:45:15;;;;;;;1.45;1.35;;;22.20;92.00;;;;;;4947670;29;20233;-71
2022/09/06 01:47:50;;;;;;;2.15;1.38;;;22.20;91.90;;;;;;4948065;29;20256;-68
2022/09/06 01:50:48;;;;;;;1.63;1.48;;;22.20;92.90;;;;;;4946619;29;20185;-74
2022/09/06 01:53:26;;;;;;;1.83;1.20;;;22.20;93.60;;;;;;4931002;29;20213;-70
2022/09/06 01:56:20;;;;;;;1.55;1.33;;;22.20;93.40;;;;;;4940307;29;20185;-71
2022/09/06 01:58:48;;;;;;;2.33;1.40;;;22.20;94.00;;;;;;4964735;29;20224;-70
2022/09/06 02:01:17;;;;;;;1.95;1.27;;;22.20;93.20;;;;;;4948786;29;20193;-72
2022/09/06 02:04:30;;;;;;;1.65;1.30;;;22.20;94.20;;;;;;4940809;29;20192;-72
2022/09/06 02:07:22;;;;;;;1.73;1.40;;;22.20;95.20;;;;;;4849020;29;20187;-72
2022/09/06 02:10:13;;;;;;;2.63;1.50;;;22.20;96.20;;;;;;4890620;29;20228;-70
2022/09/06 02:12:46;;;;;;;1.67;1.40;;;22.20;96.50;;;;;;4964906;28;20403;-71
2022/09/06 02:15:30;;;;;;;1.90;1.55;;;22.20;96.00;;;;;;4950055;29;20162;-72
2022/09/06 02:18:27;;;;;;;1.52;1.40;;;22.20;97.00;;;;;;4957791;29;20229;-69
2022/09/06 02:20:56;;;;;;;3.10;1.65;;;22.10;97.20;;;;;;4926451;29;20275;-70
2022/09/06 02:23:26;;;;;;;1.70;1.17;;;22.10;96.90;;;;;;4948674;29;20161;-71
2022/09/06 02:26:14;;;;;;;2.55;1.52;;;22.10;97.10;;;;;;4956852;29;20188;-71
2022/09/06 02:28:40;;;;;;;1.92;1.45;;;22.10;97.20;;;;;;4952865;29;20425;-71
2022/09/06 02:31:13;;;;;;;1.60;1.38;;;22.10;97.10;;;;;;4948734;29;20182;-70
2022/09/06 02:33:40;;;;;;;2.33;1.40;;;22.10;98.40;;;;;;4946193;29;20198;-72
2022/09/06 02:36:08;;;;;;;2.90;1.60;;;22.10;98.10;;;;;;4949405;29;20181;-71
2022/09/06 02:38:36;;;;;;;2.08;1.40;;;22.10;98.60;;;;;;4959154;29;20177;-71
2022/09/06 02:41:03;;;;;;;1.80;1.38;;;22.10;98.80;;;;;;4963458;29;20193;-67
2022/09/06 02:43:32;;;;;;;2.08;1.60;;;22.10;99.30;;;;;;4948463;29;20249;-68
2022/09/06 02:45:57;;;;;;;1.63;1.40;;;22.10;99.40;;;;;;4962313;29;20204;-72
2022/09/06 02:48:25;;;;;;;2.10;1.52;;;22.10;99.70;;;;;;4944506;29;20202;-71
2022/09/06 02:50:53;;;;;;;2.75;1.55;;;22.10;99.90;;;;;;4945830;29;20213;-71
2022/09/06 02:53:19;;;;;;;1.63;1.52;;;22.10;99.90;;;;;;4961424;29;20347;-67
2022/09/06 02:55:47;;;;;;;2.50;1.75;;;22.10;99.90;;;;;;4950379;29;20201;-71
2022/09/06 02:58:17;;;;;;;2.30;1.40;;;22.10;99.90;;;;;;4950587;29;20177;-71
2022/09/06 03:00:43;;;;;;;1.60;1.33;;;22.10;99.90;;;;;;4948415;29;20173;-72
2022/09/06 03:03:11;;;;;;;2.33;1.50;;;22.10;99.90;;;;;;4951520;28;20221;-70
2022/09/06 03:05:37;;;;;;;2.13;1.73;;;22.10;99.90;;;;;;4946122;29;20248;-71
2022/09/06 03:08:05;;;;;;;2.95;1.77;;;22.10;99.90;;;;;;4947655;29;20193;-71
2022/09/06 03:10:30;;;;;;;1.75;1.65;;;22.00;99.90;;;;;;4948550;29;20181;-69
2022/09/06 03:12:58;;;;;;;2.08;1.60;;;22.00;99.90;;;;;;4951481;29;20220;-70
2022/09/06 03:15:24;;;;;;;2.05;1.60;;;22.00;99.90;;;;;;4948134;29;20185;-67
2022/09/06 03:17:52;;;;;;;2.95;1.50;;;21.90;99.90;;;;;;4947372;29;20197;-71
2022/09/06 03:20:20;;;;;;;2.92;1.52;;;21.90;99.90;;;;;;4950139;29;20186;-70
2022/09/06 03:22:45;;;;;;;1.60;1.30;;;21.80;99.90;;;;;;4932561;29;20189;-68
2022/09/06 03:25:13;;;;;;;2.60;1.55;;;21.80;99.90;;;;;;4962173;29;20184;-71
2022/09/06 03:27:39;;;;;;;1.73;1.50;;;21.70;99.90;;;;;;4938317;29;20206;-70
2022/09/06 03:30:06;;;;;;;2.70;1.60;;;21.60;99.90;;;;;;4959199;29;20189;-70
2022/09/06 03:32:31;;;;;;;2.58;1.90;;;21.60;99.90;;;;;;4939263;29;20194;-72
2022/09/06 03:34:58;;;;;;;2.70;2.35;;;21.50;99.90;;;;;;4946587;29;20173;-67
2022/09/06 03:37:23;;;;;;;2.53;2.13;;;21.50;99.90;;;;;;4962864;29;20248;-71
2022/09/06 03:39:54;;;;;;;3.28;2.22;;;21.40;99.90;;;;;;4957096;29;20181;-71
2022/09/06 03:42:25;;;;;;;1.92;1.55;;;21.40;99.90;;;;;;4944409;29;20191;-71
2022/09/06 03:44:53;;;;;;;4.13;3.60;;;21.30;99.90;;;;;;4942464;29;20205;-71
2022/09/06 03:47:19;;;;;;;6.18;3.70;;;21.30;99.90;;;;;;4953239;29;20189;-68
2022/09/06 03:49:45;;;;;;;3.28;2.88;;;21.30;99.90;;;;;;4948778;29;20190;-72
2022/09/06 03:52:11;;;;;;;4.07;2.53;;;21.20;99.90;;;;;;4941704;29;20197;-69
2022/09/06 03:54:39;;;;;;;3.08;2.78;;;21.10;99.90;;;;;;4945082;29;20221;-71
2022/09/06 03:57:07;;;;;;;3.03;2.13;;;21.10;99.90;;;;;;4948045;29;20219;-72
2022/09/06 03:59:33;;;;;;;2.97;1.98;;;21.00;99.90;;;;;;4939166;29;20188;-72
2022/09/06 04:01:58;;;;;;;2.33;1.73;;;21.00;99.90;;;;;;4941591;29;20280;-69
2022/09/06 04:04:24;;;;;;;2.42;1.83;;;20.90;99.90;;;;;;4957561;29;20194;-72
2022/09/06 04:06:52;;;;;;;2.33;2.00;;;20.90;99.90;;;;;;4938716;29;20213;-72
2022/09/06 04:09:18;;;;;;;2.95;1.95;;;20.80;99.90;;;;;;4947875;29;20192;-72
2022/09/06 04:11:48;;;;;;;2.75;2.22;;;20.80;99.90;;;;;;4945481;29;20194;-71
2022/09/06 04:14:16;;;;;;;2.33;2.10;;;20.70;99.90;;;;;;4936718;29;20209;-72
2022/09/06 04:16:41;;;;;;;2.92;2.30;;;20.60;99.90;;;;;;4940585;29;20188;-71
2022/09/06 04:19:07;;;;;;;3.35;1.98;;;20.60;99.90;;;;;;4945172;29;20210;-70
2022/09/06 04:21:33;;;;;;;2.20;1.83;;;20.60;99.90;;;;;;4967311;28;20195;-71
2022/09/06 04:23:59;;;;;;;2.10;1.90;;;20.50;99.90;;;;;;4943527;29;20181;-69
2022/09/06 04:26:24;;;;;;;2.25;1.92;;;20.50;99.90;;;;;;4944910;29;20208;-70
2022/09/06 04:28:52;;;;;;;1.65;1.55;;;20.50;99.90;;;;;;4942839;29;20192;-71
2022/09/06 04:31:20;;;;;;;2.10;1.77;;;20.50;99.90;;;;;;4943471;29;20197;-71
2022/09/06 04:33:46;;;;;;;1.83;1.63;;;20.40;99.90;;;;;;4935110;29;20205;-71
2022/09/06 04:36:16;;;;;;;2.63;1.88;;;20.40;99.90;;;;;;4946574;29;20188;-70
2022/09/06 04:38:43;;;;;;;2.20;1.75;;;20.40;99.90;;;;;;4936146;29;20177;-73
2022/09/06 04:41:11;;;;;;;3.65;2.03;;;20.40;99.90;;;;;;4940727;29;20192;-73
2022/09/06 04:43:39;;;;;;;3.08;2.20;;;20.30;99.90;;;;;;4959284;29;20177;-74
2022/09/06 04:46:10;;;;;;;3.38;2.30;;;20.30;99.90;;;;;;4937024;29;20184;-74
2022/09/06 04:48:36;;;;;;;2.53;1.90;;;20.30;99.90;;;;;;4946379;29;20166;-74
2022/09/06 04:51:01;;;;;;;2.70;2.05;;;20.20;99.90;;;;;;4946250;29;20485;-67
2022/09/06 04:53:27;;;;;;;14.15;11.20;;;20.20;99.90;;;;;;4944799;29;20271;-69
2022/09/06 04:55:56;;;;;;;6.88;5.28;;;20.20;99.90;;;;;;4948223;29;20173;-69
2022/09/06 04:58:24;;;;;;;5.88;3.85;;;20.20;99.90;;;;;;4947188;29;20203;-69
2022/09/06 05:00:50;;;;;;;3.80;3.20;;;20.20;99.90;;;;;;4957083;29;20280;-69
2022/09/06 05:03:15;;;;;;;3.50;2.78;;;20.10;99.90;;;;;;4957941;29;20231;-69
2022/09/06 05:05:41;;;;;;;3.33;2.42;;;20.10;99.90;;;;;;4956795;29;20216;-68
2022/09/06 05:08:09;;;;;;;3.25;2.20;;;20.10;99.90;;;;;;4963272;29;20270;-69
2022/09/06 05:10:35;;;;;;;4.38;2.30;;;20.10;99.90;;;;;;4947204;29;20203;-69
2022/09/06 05:13:00;;;;;;;2.60;2.33;;;20.00;99.90;;;;;;4939590;29;20197;-69
2022/09/06 05:15:26;;;;;;;3.10;2.47;;;20.00;99.90;;;;;;4963847;28;20181;-68
2022/09/06 05:17:54;;;;;;;3.70;2.30;;;20.00;99.90;;;;;;4946547;29;20211;-68
2022/09/06 05:20:22;;;;;;;3.35;2.10;;;19.90;99.90;;;;;;4958673;29;20181;-69
2022/09/06 05:22:53;;;;;;;2.40;1.90;;;19.90;99.90;;;;;;4937301;29;20525;-69
2022/09/06 05:25:18;;;;;;;2.72;1.92;;;19.90;99.90;;;;;;4936806;29;20263;-68
2022/09/06 05:27:44;;;;;;;2.17;1.98;;;19.90;99.90;;;;;;4961502;29;20193;-69
2022/09/06 05:30:10;;;;;;;3.13;2.17;;;19.90;99.90;;;;;;4942093;29;20196;-70
2022/09/06 05:32:38;;;;;;;2.10;1.90;;;19.90;99.90;;;;;;4943201;29;20205;-70
2022/09/06 05:35:04;;;;;;;3.10;2.00;;;20.00;99.90;;;;;;4952932;29;20216;-70
2022/09/06 05:37:29;;;;;;;2.85;2.00;;;20.00;99.90;;;;;;4961107;29;20178;-69
2022/09/06 05:39:55;;;;;;;2.35;1.95;;;20.00;99.90;;;;;;4962075;29;20241;-69
2022/09/06 05:42:23;;;;;;;2.47;1.92;;;20.00;99.90;;;;;;4955665;29;20240;-71
2022/09/06 05:44:51;;;;;;;2.28;1.95;;;20.00;99.90;;;;;;4927633;29;20190;-67
2022/09/06 05:47:17;;;;;;;3.50;1.95;;;20.00;99.90;;;;;;4959514;28;20189;-70
2022/09/06 05:49:42;;;;;;;3.17;2.08;;;20.10;99.90;;;;;;4950292;29;20209;-69
2022/09/06 05:52:10;;;;;;;2.53;1.90;;;20.10;99.90;;;;;;4940123;29;20198;-70
2022/09/06 05:54:38;;;;;;;2.28;1.90;;;20.10;99.90;;;;;;4944374;29;20230;-69
2022/09/06 05:57:04;;;;;;;4.15;2.00;;;20.10;99.90;;;;;;4946802;29;20194;-68
2022/09/06 05:59:29;;;;;;;3.08;2.30;;;20.10;99.90;;;;;;4946730;29;20273;-70
2022/09/06 06:01:55;;;;;;;3.42;2.08;;;20.10;99.90;;;;;;4942880;29;20201;-70
2022/09/06 06:04:21;;;;;;;4.18;2.22;;;20.20;99.90;;;;;;4957879;29;20217;-69
2022/09/06 06:06:48;;;;;;;2.55;2.05;;;20.20;99.90;;;;;;4967055;29;20181;-70
2022/09/06 06:09:14;;;;;;;2.20;1.92;;;20.20;99.90;;;;;;4965683;29;20253;-71
2022/09/06 06:11:44;;;;;;;3.83;2.50;;;20.20;99.90;;;;;;4947598;29;20197;-69
2022/09/06 06:14:12;;;;;;;4.30;2.25;;;20.30;99.90;;;;;;4965478;29;20232;-71
2022/09/06 06:16:38;;;;;;;3.13;2.30;;;20.30;99.90;;;;;;4950580;29;20178;-69
2022/09/06 06:19:04;;;;;;;3.20;2.13;;;20.30;99.90;;;;;;4966810;29;20214;-69
2022/09/06 06:21:31;;;;;;;2.65;2.13;;;20.40;99.90;;;;;;4957670;29;20264;-70
2022/09/06 06:24:03;;;;;;;3.08;2.35;;;20.40;99.90;;;;;;4966657;29;20233;-70
2022/09/06 06:26:35;;;;;;;2.80;1.85;;;20.50;99.90;;;;;;4952069;29;20192;-70
2022/09/06 06:29:02;;;;;;;2.10;1.85;;;20.50;99.90;;;;;;4955558;29;20221;-70
2022/09/06 06:31:29;;;;;;;3.08;1.88;;;20.50;99.90;;;;;;4942202;29;20175;-70
2022/09/06 06:33:54;;;;;;;3.05;1.80;;;20.60;99.90;;;;;;4948083;29;20189;-70
2022/09/06 06:36:23;;;;;;;2.88;1.88;;;20.70;99.90;;;;;;4964304;29;20170;-69
2022/09/06 06:38:50;;;;;;;2.03;1.70;;;20.70;99.90;;;;;;4964317;28;20190;-70
2022/09/06 06:41:18;;;;;;;1.98;1.50;;;20.80;99.90;;;;;;4958312;29;20212;-70
2022/09/06 06:43:43;;;;;;;4.13;1.70;;;20.80;99.90;;;;;;4966018;29;20222;-70
2022/09/06 06:46:10;;;;;;;2.10;1.60;;;20.90;99.90;;;;;;4951016;29;20192;-69
2022/09/06 06:48:39;;;;;;;3.15;1.88;;;21.00;99.90;;;;;;4946849;29;20268;-70
2022/09/06 06:51:08;;;;;;;2.75;2.03;;;21.00;99.90;;;;;;4946088;29;20197;-71
2022/09/06 06:53:37;;;;;;;2.72;1.70;;;21.10;99.90;;;;;;4961764;29;20209;-70
2022/09/06 06:56:17;;;;;;;4.70;1.80;;;21.20;99.90;;;;;;4959968;29;20178;-69
2022/09/06 06:58:47;;;;;;;3.25;1.65;;;21.20;99.90;;;;;;4947359;29;20183;-69
2022/09/06 07:01:16;;;;;;;2.85;1.75;;;21.30;99.90;;;;;;4950591;29;20206;-69
2022/09/06 07:03:45;;;;;;;2.35;1.92;;;21.30;99.90;;;;;;4950820;29;20244;-70
2022/09/06 07:06:13;;;;;;;2.08;1.60;;;21.40;99.90;;;;;;4947084;29;20282;-67
2022/09/06 07:08:40;;;;;;;2.58;1.70;;;21.40;99.90;;;;;;4943817;29;20224;-71
2022/09/06 07:11:09;;;;;;;3.38;1.88;;;21.50;99.90;;;;;;4950579;29;20181;-72
2022/09/06 07:13:35;;;;;;;3.60;1.88;;;21.50;99.90;;;;;;4969939;28;20193;-70
2022/09/06 07:16:19;;;;;;;3.13;1.80;;;21.60;99.90;;;;;;4967175;29;20266;-71
2022/09/06 07:18:45;;;;;;;2.90;1.70;;;21.70;99.90;;;;;;4942887;29;20188;-70
2022/09/06 07:21:14;;;;;;;1.90;1.50;;;21.80;99.90;;;;;;4964992;29;20205;-70
2022/09/06 07:23:40;;;;;;;4.03;1.50;;;21.80;99.90;;;;;;4941196;29;20206;-70
2022/09/06 07:26:06;;;;;;;3.03;1.13;;;21.90;99.90;;;;;;4957822;29;20197;-69
2022/09/06 07:28:32;;;;;;;2.08;1.33;;;21.90;99.90;;;;;;4961833;28;20205;-70
2022/09/06 07:31:00;;;;;;;1.95;1.50;;;22.10;99.90;;;;;;4943494;29;20182;-68
2022/09/06 07:33:27;;;;;;;1.60;1.20;;;22.10;99.90;;;;;;4960966;29;20218;-68
2022/09/06 07:36:00;;;;;;;2.17;1.50;;;22.20;99.90;;;;;;4961840;29;20240;-68
2022/09/06 07:38:30;;;;;;;3.08;1.50;;;22.30;99.90;;;;;;4963953;29;20174;-70
2022/09/06 07:41:03;;;;;;;1.80;1.40;;;22.30;99.90;;;;;;4949076;29;20177;-71
2022/09/06 07:43:29;;;;;;;1.55;1.30;;;22.40;99.90;;;;;;4961334;29;20181;-71
2022/09/06 07:46:01;;;;;;;2.13;1.42;;;22.50;99.90;;;;;;4948598;29;20325;-71
2022/09/06 07:48:29;;;;;;;4.28;1.40;;;22.60;99.90;;;;;;4931711;29;20455;-71
2022/09/06 07:50:55;;;;;;;1.27;1.17;;;22.70;99.90;;;;;;4941407;29;20197;-71
2022/09/06 07:53:20;;;;;;;1.67;1.30;;;22.70;99.90;;;;;;4966181;29;20299;-69
2022/09/06 07:55:46;;;;;;;5.95;1.30;;;22.80;99.90;;;;;;4957641;29;20209;-70
2022/09/06 07:58:14;;;;;;;1.77;1.30;;;22.90;99.90;;;;;;4950845;29;20162;-71
2022/09/06 08:00:42;;;;;;;1.45;1.17;;;23.00;99.90;;;;;;4950301;29;20181;-70
2022/09/06 08:03:13;;;;;;;1.55;1.25;;;23.10;99.90;;;;;;4946763;29;20185;-69
2022/09/06 08:05:38;;;;;;;1.85;1.20;;;23.20;99.90;;;;;;4961739;28;20209;-70
2022/09/06 08:08:06;;;;;;;2.58;1.10;;;23.30;99.90;;;;;;4948209;29;20215;-70
2022/09/06 08:10:32;;;;;;;2.10;1.20;;;23.30;99.90;;;;;;4949232;29;20181;-71
2022/09/06 08:13:00;;;;;;;1.90;1.20;;;23.40;99.90;;;;;;4967088;28;20211;-70
2022/09/06 08:15:30;;;;;;;1.50;1.00;;;23.40;99.90;;;;;;4950953;29;20205;-71
2022/09/06 08:17:56;;;;;;;2.58;1.40;;;23.50;99.90;;;;;;4957563;29;20180;-70
2022/09/06 08:20:23;;;;;;;1.50;1.10;;;23.60;99.90;;;;;;4950351;29;20192;-67
2022/09/06 08:22:51;;;;;;;1.95;1.08;;;23.70;99.90;;;;;;4949389;28;20228;-70
2022/09/06 08:25:17;;;;;;;0.93;0.90;;;23.80;99.90;;;;;;4957425;29;20182;-70
2022/09/06 08:27:43;;;;;;;1.55;1.02;;;23.90;99.90;;;;;;4945257;29;20201;-69
2022/09/06 08:30:11;;;;;;;1.10;0.90;;;24.00;99.90;;;;;;4949701;29;20181;-70
2022/09/06 08:32:41;;;;;;;1.70;1.17;;;24.10;99.90;;;;;;4963778;29;20197;-71
2022/09/06 08:35:09;;;;;;;1.20;0.90;;;24.20;99.90;;;;;;4933363;29;20232;-70
2022/09/06 08:37:35;;;;;;;1.23;1.05;;;24.30;99.90;;;;;;4960385;29;20184;-70
2022/09/06 08:40:01;;;;;;;1.23;1.00;;;24.40;99.90;;;;;;4960282;28;20178;-70
2022/09/06 08:42:29;;;;;;;1.38;1.00;;;24.50;99.90;;;;;;4944058;29;20221;-70
2022/09/06 08:44:59;;;;;;;2.13;1.00;;;24.50;99.90;;;;;;4935286;29;20197;-68
2022/09/06 08:47:25;;;;;;;0.80;0.80;;;24.60;99.90;;;;;;4950814;29;20246;-70
2022/09/06 08:49:59;;;;;;;4.20;1.20;;;24.70;99.90;;;;;;4943992;29;20209;-70
2022/09/06 08:52:34;;;;;;;0.70;0.70;;;24.80;99.90;;;;;;4947945;29;20261;-69
2022/09/06 08:55:12;;;;;;;1.60;0.88;;;24.90;99.90;;;;;;4936636;29;20188;-69
2022/09/06 08:58:17;;;;;;;0.98;0.80;;;25.00;99.90;;;;;;4932379;29;20232;-70
2022/09/06 09:00:57;;;;;;;1.52;0.80;;;25.20;99.90;;;;;;4952221;29;20173;-70
2022/09/06 09:03:45;;;;;;;1.10;0.82;;;25.20;99.90;;;;;;4962752;29;20197;-69
2022/09/06 09:06:11;;;;;;;0.80;0.68;;;25.30;99.90;;;;;;4956641;29;20189;-69
2022/09/06 09:09:11;;;;;;;0.75;0.73;;;25.40;99.90;;;;;;4969731;29;20200;-70
2022/09/06 09:11:40;;;;;;;2.60;0.80;;;25.50;99.90;;;;;;4944621;29;20212;-70
2022/09/06 09:14:29;;;;;;;0.68;0.65;;;25.60;99.90;;;;;;4971642;29;20178;-69
2022/09/06 09:17:03;;;;;;;1.90;0.90;;;25.80;99.90;;;;;;4936703;29;20198;-69
2022/09/06 09:19:36;;;;;;;1.20;0.80;;;25.90;99.90;;;;;;4962927;29;20192;-71
2022/09/06 09:22:02;;;;;;;1.52;0.95;;;25.90;99.90;;;;;;4966198;29;20221;-70
2022/09/06 09:24:27;;;;;;;0.93;0.80;;;26.00;99.90;;;;;;4969794;29;20178;-69
2022/09/06 09:27:07;;;;;;;0.90;0.70;;;26.10;99.90;;;;;;4970931;29;20209;-70
2022/09/06 09:29:55;;;;;;;1.05;0.77;;;26.20;99.90;;;;;;4969305;29;20221;-70
2022/09/06 09:32:39;;;;;;;1.90;1.10;;;26.30;99.90;;;;;;4964685;29;20280;-68
2022/09/06 09:35:25;;;;;;;1.10;0.80;;;26.40;99.90;;;;;;4955237;29;20185;-70
2022/09/06 09:38:03;;;;;;;2.42;0.80;;;26.50;99.90;;;;;;4949501;29;20193;-69
2022/09/06 09:40:37;;;;;;;1.55;1.00;;;26.60;99.90;;;;;;4954144;29;20453;-70
2022/09/06 09:43:16;;;;;;;1.75;1.10;;;26.70;99.90;;;;;;4953525;29;20196;-71
2022/09/06 09:45:45;;;;;;;1.10;0.85;;;26.80;99.90;;;;;;4954336;29;20205;-68
2022/09/06 09:48:25;;;;;;;1.50;0.90;;;27.00;99.90;;;;;;4971187;29;20182;-70
2022/09/06 09:50:57;;;;;;;1.25;1.00;;;27.10;99.90;;;;;;4969628;29;20237;-69
2022/09/06 09:53:28;;;;;;;1.20;0.80;;;27.30;99.90;;;;;;4955575;29;20209;-69
2022/09/06 09:55:57;;;;;;;1.35;0.90;;;27.50;99.90;;;;;;4971244;29;20201;-71
2022/09/06 09:58:30;;;;;;;1.58;0.80;;;28.00;99.90;;;;;;4955234;29;20205;-71
2022/09/06 10:01:23;;;;;;;0.73;0.70;;;28.70;99.10;;;;;;4957405;29;20181;-72
2022/09/06 10:03:50;;;;;;;1.00;0.70;;;29.50;98.00;;;;;;4967873;29;20217;-72
2022/09/06 10:06:25;;;;;;;1.10;0.70;;;30.20;97.70;;;;;;4953859;29;20281;-68
2022/09/06 10:08:50;;;;;;;1.15;0.85;;;30.80;95.90;;;;;;4946780;29;20267;-72
2022/09/06 10:11:37;;;;;;;0.93;0.75;;;31.40;96.30;;;;;;4956632;29;20181;-68
2022/09/06 10:14:23;;;;;;;0.80;0.75;;;32.00;93.50;;;;;;4949782;29;20191;-71
2022/09/06 10:16:51;;;;;;;1.25;0.80;;;32.50;90.90;;;;;;4971127;29;20216;-71
2022/09/06 10:19:38;;;;;;;1.83;1.02;;;32.90;92.30;;;;;;4972730;29;20191;-72
2022/09/06 10:22:20;;;;;;;2.35;1.23;;;33.20;90.10;;;;;;4951086;29;20291;-68
2022/09/06 10:25:37;;;;;;;1.35;1.00;;;33.40;87.20;;;;;;4953293;29;20189;-68
2022/09/06 10:28:40;;;;;;;0.60;0.60;;;33.80;85.40;;;;;;4950103;29;20212;-71
2022/09/06 10:31:25;;;;;;;1.27;0.68;;;34.00;79.30;;;;;;4956683;28;20207;-72
2022/09/06 10:34:27;;;;;;;1.40;0.90;;;34.10;79.10;;;;;;4949295;29;20213;-72
2022/09/06 10:37:10;;;;;;;1.52;0.98;;;34.20;80.50;;;;;;4952669;29;20177;-72
2022/09/06 10:40:07;;;;;;;0.90;0.80;;;34.40;80.20;;;;;;4971761;29;20196;-72
2022/09/06 10:42:45;;;;;;;1.42;0.60;;;34.60;77.70;;;;;;4955699;29;20219;-72
2022/09/06 10:45:34;;;;;;;1.27;0.80;;;34.80;76.30;;;;;;4966233;29;20219;-71
2022/09/06 10:48:23;;;;;;;1.33;0.80;;;35.00;77.50;;;;;;4960394;29;20211;-71
2022/09/06 10:50:59;;;;;;;1.15;0.70;;;35.10;74.90;;;;;;4956114;29;20193;-72
2022/09/06 10:53:33;;;;;;;1.23;0.70;;;35.20;75.80;;;;;;4955352;29;20268;-72
2022/09/06 10:56:12;;;;;;;1.10;0.70;;;35.30;73.20;;;;;;4952260;29;20196;-72
2022/09/06 10:59:03;;;;;;;2.13;0.80;;;35.30;73.20;;;;;;4952764;29;20181;-73
2022/09/06 11:01:50;;;;;;;0.77;0.75;;;35.30;71.80;;;;;;4936053;29;20189;-73
2022/09/06 11:04:29;;;;;;;1.30;1.10;;;35.40;71.90;;;;;;4958881;29;20203;-71
2022/09/06 11:06:59;;;;;;;1.25;0.80;;;35.50;71.10;;;;;;4953983;29;20176;-72
2022/09/06 11:09:49;;;;;;;1.10;0.80;;;35.60;71.50;;;;;;4970910;29;20228;-72
2022/09/06 11:12:24;;;;;;;1.30;0.70;;;35.60;70.10;;;;;;4952298;29;20216;-71
2022/09/06 11:14:50;;;;;;;1.27;0.82;;;35.70;68.90;;;;;;4955890;29;20187;-72
2022/09/06 11:17:48;;;;;;;1.05;0.75;;;35.70;70.50;;;;;;4971227;29;20205;-73
2022/09/06 11:20:25;;;;;;;1.23;0.80;;;35.70;61.90;;;;;;4971069;29;20177;-71
2022/09/06 11:23:23;;;;;;;1.60;1.05;;;35.80;63.60;;;;;;4969975;29;20176;-73
2022/09/06 11:26:15;;;;;;;1.73;0.85;;;35.70;65.30;;;;;;4950542;29;20209;-73
2022/09/06 11:28:48;;;;;;;1.00;0.80;;;35.70;65.80;;;;;;4938023;29;20186;-70
2022/09/06 11:31:23;;;;;;;1.10;0.70;;;35.70;65.40;;;;;;4952395;29;20228;-73
2022/09/06 11:34:01;;;;;;;1.02;0.82;;;35.80;64.40;;;;;;4968962;29;20215;-71
2022/09/06 11:36:44;;;;;;;2.03;0.80;;;35.70;61.60;;;;;;4954179;29;20165;-72
2022/09/06 11:39:12;;;;;;;2.80;0.75;;;35.70;62.90;;;;;;4953872;29;20177;-70
2022/09/06 11:41:40;;;;;;;5.15;0.90;;;35.70;65.50;;;;;;4954460;29;20165;-71
2022/09/06 11:44:09;;;;;;;1.10;0.80;;;35.70;64.40;;;;;;4933597;29;20197;-72
2022/09/06 11:46:41;;;;;;;1.58;0.90;;;35.60;63.00;;;;;;4938103;29;20177;-71
2022/09/06 11:49:38;;;;;;;1.67;0.70;;;35.60;63.20;;;;;;4936483;29;20198;-74
2022/09/06 11:52:50;;;;;;;1.05;0.70;;;35.50;62.00;;;;;;4959076;29;20272;-73
2022/09/06 11:55:18;;;;;;;3.08;0.88;;;35.40;60.30;;;;;;4952671;29;20201;-71
2022/09/06 11:57:48;;;;;;;0.80;0.68;;;35.10;62.00;;;;;;4951194;29;20240;-73
2022/09/06 12:00:22;;;;;;;2.47;1.00;;;34.80;61.70;;;;;;4966503;29;20180;-72
2022/09/06 12:02:48;;;;;;;1.58;1.00;;;34.40;60.70;;;;;;4952169;29;20271;-72
2022/09/06 12:05:28;;;;;;;1.88;1.00;;;34.00;61.40;;;;;;4970663;29;20193;-72
2022/09/06 12:08:09;;;;;;;1.65;0.80;;;33.60;61.30;;;;;;4957086;29;20212;-72
2022/09/06 12:10:38;;;;;;;1.23;0.93;;;33.30;61.60;;;;;;4949378;29;20252;-72
2022/09/06 12:13:41;;;;;;;3.60;1.00;;;33.20;62.60;;;;;;4959972;29;20267;-72
2022/09/06 12:16:09;;;;;;;2.47;1.00;;;33.10;62.80;;;;;;4952180;29;20169;-72
2022/09/06 12:18:58;;;;;;;2.47;1.00;;;33.10;64.00;;;;;;4952117;29;20208;-73
2022/09/06 12:21:46;;;;;;;3.45;1.00;;;33.20;63.30;;;;;;4944848;29;20213;-72
2022/09/06 12:24:34;;;;;;;2.15;0.90;;;33.10;61.40;;;;;;4970988;29;20179;-71
2022/09/06 12:27:18;;;;;;;1.65;0.90;;;33.10;62.30;;;;;;4969482;29;20204;-72
2022/09/06 12:29:53;;;;;;;1.70;0.80;;;32.90;62.70;;;;;;4947517;29;20181;-71
2022/09/06 12:32:26;;;;;;;1.75;1.10;;;32.70;63.20;;;;;;4967763;29;20211;-72
2022/09/06 12:34:55;;;;;;;2.20;1.10;;;32.70;63.90;;;;;;4934170;29;20165;-71
2022/09/06 12:37:49;;;;;;;3.55;1.20;;;32.80;64.60;;;;;;4947144;29;20174;-72
2022/09/06 12:40:20;;;;;;;1.40;0.95;;;32.90;63.50;;;;;;4973119;28;20184;-74
2022/09/06 12:42:48;;;;;;;2.45;0.90;;;33.10;64.90;;;;;;4953168;29;20184;-71
2022/09/06 12:45:14;;;;;;;2.72;0.90;;;33.30;65.00;;;;;;4954115;29;20181;-71
2022/09/06 12:47:40;;;;;;;1.60;1.00;;;33.60;65.10;;;;;;4953839;29;20259;-72
2022/09/06 12:50:16;;;;;;;1.35;0.90;;;33.90;65.10;;;;;;4970205;29;20180;-73
2022/09/06 12:52:52;;;;;;;1.50;0.98;;;34.00;64.70;;;;;;4947069;29;20213;-71
2022/09/06 12:55:39;;;;;;;2.45;0.93;;;34.20;63.70;;;;;;4954247;29;20186;-73
2022/09/06 12:58:12;;;;;;;1.98;1.30;;;34.40;63.70;;;;;;4965979;29;20162;-73
2022/09/06 13:00:42;;;;;;;2.03;1.00;;;34.60;64.00;;;;;;4961161;29;20161;-71
2022/09/06 13:03:30;;;;;;;1.40;0.90;;;34.80;64.50;;;;;;4970164;29;20165;-71
2022/09/06 13:06:01;;;;;;;2.08;1.00;;;35.00;63.60;;;;;;4969785;29;20215;-73
2022/09/06 13:08:36;;;;;;;1.13;0.80;;;35.20;64.00;;;;;;4959189;29;20161;-70
2022/09/06 13:11:06;;;;;;;1.75;1.10;;;35.20;61.60;;;;;;4969163;29;20201;-72
2022/09/06 13:13:34;;;;;;;1.50;1.05;;;35.20;61.70;;;;;;4969653;29;20201;-72
2022/09/06 13:16:00;;;;;;;1.77;1.20;;;35.10;60.70;;;;;;4950392;29;20186;-69